Langley Air Force Base Hampton US
ICAO: KLFI
IATA: LFI
Category: Large
Scheduled Services: No

Elevation: 11 ft
TransAlt. 18000 ft.

Airport Communications:
NORFOLK APP/DEP:124.9
ATIS:27.01
CLNC DEL:118.85
GND:121.7
NASA OPS:123.375
PMSV METRO:23.98
CNSOLIDATED CMD POST:25.125
PTD:141.75
TWR:125

KLFI Zoom In..

If you have problems with the map follow the link
https://www.worldairports.se/pages/airport.php?
ICAO=KLFI

Runways:

(A) RW 08 length 10002 ft width 150 ft
ILS 109.90 / hdg 78

(B) RW 26 length 10002 ft width 150 ft
ILS 109.90 / hdg 258

Location; KLFI
Day. 08 / Time. 05.56 Zulu
* Altimeter: 30.47
* Temperature: 02° c. 35.6°f.
* Wind from: 050° Speed 13 kn.
Dewpoint: -02° c.
Visibility: 10 Statute Miles.
Clouds: Clear (automated report).

KLFI 080556Z 05013KT 10SM CLR 02/M02 A3047 RMK AO2A SLP325 T00241025 10027 21008 50005 $


Wind From 050°
Speed 13 kn.

 
 
jpsmedia worldairports.se 2019   terms of use